Time;durP1;ratioP1;P1;durP2;ratioP2;P2;SDS_P1;SDS_P2;PMS_P1;PMS_P2;Temp;Humidity;BMP_temperature;BMP_pressure;BME280_temperature;BME280_humidity;BME280_pressure;Samples;Min_cycle;Max_cycle;Signal;HPM_P1;HPM_P2
2021/12/22 00:01:16;;;;;;;15.38;11.95;;;;;;;;;;5111155;28;20048;-63
2021/12/22 00:03:46;;;;;;;15.48;12.05;;;;;;;;;;5111045;28;20494;-63
2021/12/22 00:06:13;;;;;;;14.73;11.75;;;;;;;;;;5110835;28;20589;-63
2021/12/22 00:08:40;;;;;;;16.13;11.98;;;;;;;;;;5110673;28;20093;-63
2021/12/22 00:11:06;;;;;;;17.67;11.63;;;;;;;;;;5110828;28;20048;-63
2021/12/22 00:13:32;;;;;;;15.93;12.02;;;;;;;;;;5111065;28;20486;-63
2021/12/22 00:15:58;;;;;;;16.25;11.73;;;;;;;;;;5110033;28;20040;-62
2021/12/22 00:18:24;;;;;;;15.85;11.52;;;;;;;;;;5113443;28;20105;-63
2021/12/22 00:20:52;;;;;;;16.00;11.27;;;;;;;;;;5114691;28;20043;-63
2021/12/22 00:23:18;;;;;;;17.58;11.88;;;;;;;;;;5114124;28;20043;-63
2021/12/22 00:25:44;;;;;;;15.27;11.38;;;;;;;;;;5114496;28;20043;-63
2021/12/22 00:28:11;;;;;;;17.73;11.82;;;;;;;;;;5114755;28;20051;-63
2021/12/22 00:30:38;;;;;;;15.52;11.70;;;;;;;;;;5113634;28;20046;-63
2021/12/22 00:33:07;;;;;;;14.85;11.68;;;;;;;;;;5114512;28;20047;-63
2021/12/22 00:35:40;;;;;;;15.70;12.35;;;;;;;;;;5114720;28;20051;-63
2021/12/22 00:38:09;;;;;;;15.82;12.32;;;;;;;;;;5113736;28;20039;-63
2021/12/22 00:40:35;;;;;;;17.80;12.57;;;;;;;;;;5114514;28;20048;-63
2021/12/22 00:43:02;;;;;;;16.85;11.95;;;;;;;;;;5113477;28;20184;-63
2021/12/22 00:45:31;;;;;;;17.17;11.80;;;;;;;;;;5114281;28;20487;-63
2021/12/22 00:47:57;;;;;;;16.83;12.10;;;;;;;;;;5114223;28;20044;-63
2021/12/22 00:50:23;;;;;;;13.40;11.13;;;;;;;;;;5113709;27;20043;-63
2021/12/22 00:52:49;;;;;;;18.08;11.93;;;;;;;;;;5114034;28;20043;-63
2021/12/22 00:55:19;;;;;;;15.23;12.52;;;;;;;;;;5114154;28;20062;-63
2021/12/22 00:57:45;;;;;;;15.73;12.02;;;;;;;;;;5113081;28;20039;-63
2021/12/22 01:00:12;;;;;;;14.02;10.95;;;;;;;;;;5114380;28;20105;-63
2021/12/22 01:02:38;;;;;;;14.15;12.25;;;;;;;;;;5113821;28;20065;-63
2021/12/22 01:05:05;;;;;;;16.33;11.88;;;;;;;;;;5113067;28;20051;-63
2021/12/22 01:07:31;;;;;;;14.43;11.40;;;;;;;;;;5113683;28;20494;-63
2021/12/22 01:09:57;;;;;;;16.75;12.20;;;;;;;;;;5113532;28;20535;-63
2021/12/22 01:12:25;;;;;;;14.85;12.05;;;;;;;;;;5112931;28;20049;-63
2021/12/22 01:14:51;;;;;;;14.98;11.30;;;;;;;;;;5113819;28;20055;-63
2021/12/22 01:17:18;;;;;;;14.75;11.85;;;;;;;;;;5114016;28;20199;-63
2021/12/22 01:19:50;;;;;;;14.02;11.73;;;;;;;;;;5112631;28;20155;-63
2021/12/22 01:22:27;;;;;;;14.82;11.48;;;;;;;;;;5113664;28;20478;-63
2021/12/22 01:25:01;;;;;;;16.90;11.77;;;;;;;;;;5113474;28;20039;-63
2021/12/22 01:27:33;;;;;;;14.60;11.32;;;;;;;;;;5113143;28;20047;-63
2021/12/22 01:29:59;;;;;;;14.90;11.13;;;;;;;;;;5112785;28;20071;-63
2021/12/22 01:32:26;;;;;;;15.57;11.68;;;;;;;;;;5112396;28;20043;-63
2021/12/22 01:34:52;;;;;;;15.32;11.68;;;;;;;;;;5113212;28;20044;-63
2021/12/22 01:37:19;;;;;;;15.73;11.57;;;;;;;;;;5113279;28;20040;-64
2021/12/22 01:39:45;;;;;;;15.88;11.57;;;;;;;;;;5112501;28;20108;-63
2021/12/22 01:42:11;;;;;;;16.55;11.73;;;;;;;;;;5113694;28;20040;-63
2021/12/22 01:44:59;;;;;;;17.00;11.82;;;;;;;;;;5113161;28;20486;-63
2021/12/22 01:50:10;;;;;;;16.08;11.75;;;;;;;;;;5113266;28;20164;-63
2021/12/22 01:52:36;;;;;;;14.88;11.57;;;;;;;;;;5113299;27;20089;-63
2021/12/22 01:55:13;;;;;;;14.52;11.77;;;;;;;;;;5112190;28;20051;-63
2021/12/22 01:57:44;;;;;;;14.63;11.80;;;;;;;;;;5113125;28;20047;-63
2021/12/22 02:00:13;;;;;;;14.82;11.35;;;;;;;;;;5112711;28;20048;-63
2021/12/22 02:02:39;;;;;;;14.25;11.70;;;;;;;;;;5112001;28;20474;-63
2021/12/22 02:05:06;;;;;;;16.52;12.68;;;;;;;;;;5112365;28;20048;-63
2021/12/22 02:07:32;;;;;;;16.05;12.20;;;;;;;;;;5112122;28;20044;-63
2021/12/22 02:10:11;;;;;;;17.85;12.50;;;;;;;;;;5112466;28;20454;-63
2021/12/22 02:12:43;;;;;;;19.17;12.15;;;;;;;;;;5112710;28;20054;-63
2021/12/22 02:15:10;;;;;;;15.80;12.48;;;;;;;;;;5111714;28;20490;-63
2021/12/22 02:17:39;;;;;;;17.27;12.35;;;;;;;;;;5112638;28;20048;-63
2021/12/22 02:20:08;;;;;;;18.65;12.38;;;;;;;;;;5112210;28;20104;-63
2021/12/22 02:22:35;;;;;;;17.67;12.57;;;;;;;;;;5111866;28;20101;-63
2021/12/22 02:25:07;;;;;;;16.77;12.80;;;;;;;;;;5112069;28;20047;-63
2021/12/22 02:27:38;;;;;;;18.85;13.25;;;;;;;;;;5112417;28;20043;-63
2021/12/22 02:30:07;;;;;;;17.02;12.40;;;;;;;;;;5111308;28;20044;-63
2021/12/22 02:33:06;;;;;;;17.27;12.55;;;;;;;;;;5112485;28;20096;-63
2021/12/22 02:35:41;;;;;;;16.63;11.95;;;;;;;;;;5111386;28;20077;-63
2021/12/22 02:38:14;;;;;;;16.55;12.57;;;;;;;;;;5112325;28;20536;-63
2021/12/22 02:40:41;;;;;;;16.85;12.32;;;;;;;;;;5111670;28;20048;-63
2021/12/22 02:43:07;;;;;;;15.93;12.13;;;;;;;;;;5111398;28;20057;-63
2021/12/22 02:45:34;;;;;;;15.80;12.23;;;;;;;;;;5112044;28;20124;-63
2021/12/22 02:48:00;;;;;;;16.73;12.45;;;;;;;;;;5111931;28;20075;-63
2021/12/22 02:50:27;;;;;;;18.77;12.80;;;;;;;;;;5111070;28;20043;-63
2021/12/22 02:53:04;;;;;;;17.63;12.73;;;;;;;;;;5111923;28;20101;-63
2021/12/22 02:55:41;;;;;;;16.75;12.43;;;;;;;;;;5111912;28;20055;-63
2021/12/22 02:58:09;;;;;;;16.23;12.45;;;;;;;;;;5111253;28;20456;-63
2021/12/22 03:00:48;;;;;;;18.70;13.10;;;;;;;;;;5111970;28;20092;-63
2021/12/22 03:03:27;;;;;;;16.83;12.10;;;;;;;;;;5111694;28;20509;-63
2021/12/22 03:05:54;;;;;;;18.55;12.60;;;;;;;;;;5111367;28;20135;-63
2021/12/22 03:08:22;;;;;;;16.02;12.48;;;;;;;;;;5111922;28;20464;-63
2021/12/22 03:10:51;;;;;;;17.52;12.30;;;;;;;;;;5110531;28;20481;-63
2021/12/22 03:13:17;;;;;;;17.77;13.05;;;;;;;;;;5111660;28;20382;-63
2021/12/22 03:15:43;;;;;;;17.63;11.85;;;;;;;;;;5111478;28;20077;-63
2021/12/22 03:18:10;;;;;;;18.27;12.30;;;;;;;;;;5111019;28;20044;-63
2021/12/22 03:20:36;;;;;;;18.80;12.25;;;;;;;;;;5111594;28;20459;-63
2021/12/22 03:23:04;;;;;;;16.75;12.05;;;;;;;;;;5111305;28;20051;-63
2021/12/22 03:25:32;;;;;;;17.45;12.45;;;;;;;;;;5110905;28;20067;-63
2021/12/22 03:28:02;;;;;;;16.20;12.18;;;;;;;;;;5111380;28;20383;-63
2021/12/22 03:30:29;;;;;;;16.90;12.63;;;;;;;;;;5111521;28;20040;-63
2021/12/22 03:32:55;;;;;;;18.00;12.55;;;;;;;;;;5110609;28;20047;-63
2021/12/22 03:35:22;;;;;;;17.73;12.38;;;;;;;;;;5111457;28;20097;-63
2021/12/22 03:37:49;;;;;;;17.83;12.02;;;;;;;;;;5111223;28;20044;-63
2021/12/22 03:40:16;;;;;;;16.77;12.25;;;;;;;;;;5110504;28;20051;-63
2021/12/22 03:42:43;;;;;;;15.57;11.85;;;;;;;;;;5111185;28;20477;-63
2021/12/22 03:45:10;;;;;;;16.35;12.02;;;;;;;;;;5111331;28;20547;-63
2021/12/22 03:47:36;;;;;;;17.73;12.20;;;;;;;;;;5110733;28;20047;-63
2021/12/22 03:50:03;;;;;;;19.48;12.55;;;;;;;;;;5111266;28;20047;-63
2021/12/22 03:52:29;;;;;;;16.20;11.77;;;;;;;;;;5112402;28;20045;-63
2021/12/22 03:54:58;;;;;;;16.55;11.80;;;;;;;;;;5114410;28;20455;-63
2021/12/22 03:57:24;;;;;;;18.02;12.63;;;;;;;;;;5115448;28;20044;-63
2021/12/22 03:59:51;;;;;;;18.33;12.57;;;;;;;;;;5114849;28;20051;-64
2021/12/22 04:02:20;;;;;;;20.23;13.88;;;;;;;;;;5114841;28;20043;-63
2021/12/22 04:04:47;;;;;;;17.73;12.48;;;;;;;;;;5114868;28;20078;-63
2021/12/22 04:07:14;;;;;;;17.52;12.43;;;;;;;;;;5114302;28;20052;-63
2021/12/22 04:09:40;;;;;;;18.27;12.70;;;;;;;;;;5114974;28;20047;-63
2021/12/22 04:12:07;;;;;;;17.90;12.05;;;;;;;;;;5114913;28;20047;-63
2021/12/22 04:14:33;;;;;;;15.25;11.95;;;;;;;;;;5114609;28;20097;-63
2021/12/22 04:17:01;;;;;;;18.95;12.40;;;;;;;;;;5114710;28;20558;-63
2021/12/22 04:19:27;;;;;;;17.15;12.52;;;;;;;;;;5114917;28;20089;-63
2021/12/22 04:21:53;;;;;;;17.33;11.93;;;;;;;;;;5114035;28;20056;-63
2021/12/22 04:24:20;;;;;;;17.52;12.75;;;;;;;;;;5114798;28;20547;-63
2021/12/22 04:26:46;;;;;;;18.92;12.73;;;;;;;;;;5114390;28;20513;-63
2021/12/22 04:29:13;;;;;;;18.75;12.25;;;;;;;;;;5114120;28;20096;-63
2021/12/22 04:31:40;;;;;;;19.23;13.55;;;;;;;;;;5114523;28;20131;-63
2021/12/22 04:34:08;;;;;;;16.15;11.95;;;;;;;;;;5114370;27;20043;-63
2021/12/22 04:36:34;;;;;;;20.80;12.65;;;;;;;;;;5113846;28;20084;-63
2021/12/22 04:39:01;;;;;;;18.17;12.38;;;;;;;;;;5114616;28;20044;-63
2021/12/22 04:41:27;;;;;;;19.48;12.75;;;;;;;;;;5114435;28;20074;-63
2021/12/22 04:43:54;;;;;;;18.35;12.98;;;;;;;;;;5113562;28;20100;-63
2021/12/22 04:46:20;;;;;;;18.48;12.63;;;;;;;;;;5114506;28;20047;-63
2021/12/22 04:48:46;;;;;;;16.30;12.00;;;;;;;;;;5114055;28;20043;-63
2021/12/22 04:51:22;;;;;;;19.27;12.48;;;;;;;;;;5113759;28;20040;-63
2021/12/22 04:53:52;;;;;;;18.38;12.77;;;;;;;;;;5114220;28;20076;-63
2021/12/22 04:56:19;;;;;;;18.40;13.05;;;;;;;;;;5113939;28;20138;-63
2021/12/22 04:58:45;;;;;;;18.52;13.13;;;;;;;;;;5113723;28;20100;-63
2021/12/22 05:01:11;;;;;;;18.95;13.38;;;;;;;;;;5114071;28;20505;-63
2021/12/22 05:03:37;;;;;;;19.13;12.73;;;;;;;;;;5112515;28;20044;-63
2021/12/22 05:06:04;;;;;;;18.25;12.57;;;;;;;;;;5113576;28;20124;-63
2021/12/22 05:08:31;;;;;;;17.80;12.43;;;;;;;;;;5113903;28;20664;-63
2021/12/22 05:10:58;;;;;;;18.65;12.98;;;;;;;;;;5113113;28;20044;-63
2021/12/22 05:13:24;;;;;;;23.80;13.63;;;;;;;;;;5114312;28;20075;-63
2021/12/22 05:15:52;;;;;;;22.70;13.32;;;;;;;;;;5113961;28;20481;-63
2021/12/22 05:18:24;;;;;;;18.55;12.55;;;;;;;;;;5113431;28;20050;-63
2021/12/22 05:20:51;;;;;;;16.88;11.80;;;;;;;;;;5113637;28;20051;-63
2021/12/22 05:23:18;;;;;;;18.95;13.13;;;;;;;;;;5113712;28;20101;-62
2021/12/22 05:25:45;;;;;;;19.60;12.75;;;;;;;;;;5112698;28;20199;-62
2021/12/22 05:28:11;;;;;;;18.50;12.32;;;;;;;;;;5113443;28;20574;-62
2021/12/22 05:30:38;;;;;;;18.55;12.68;;;;;;;;;;5113352;28;20478;-61
2021/12/22 05:33:04;;;;;;;19.08;12.98;;;;;;;;;;5112672;28;20101;-62
2021/12/22 05:35:30;;;;;;;17.33;11.77;;;;;;;;;;5113898;27;20451;-61
2021/12/22 05:37:57;;;;;;;19.38;13.02;;;;;;;;;;5113253;28;20101;-61
2021/12/22 05:40:27;;;;;;;19.40;12.68;;;;;;;;;;5112536;28;20048;-61
2021/12/22 05:42:55;;;;;;;18.23;12.05;;;;;;;;;;5113092;28;20482;-61
2021/12/22 05:45:21;;;;;;;19.92;12.32;;;;;;;;;;5112761;28;20055;-62
2021/12/22 05:47:47;;;;;;;18.75;12.55;;;;;;;;;;5113304;28;20089;-62
2021/12/22 05:50:13;;;;;;;17.80;12.10;;;;;;;;;;5113365;28;20132;-62
2021/12/22 05:52:40;;;;;;;19.52;12.73;;;;;;;;;;5112684;27;20051;-62
2021/12/22 05:55:06;;;;;;;24.55;13.88;;;;;;;;;;5112846;28;20100;-62
2021/12/22 05:57:32;;;;;;;15.27;11.20;;;;;;;;;;5113110;28;20546;-62
2021/12/22 06:00:00;;;;;;;18.80;11.82;;;;;;;;;;5111680;27;20044;-62
2021/12/22 06:02:27;;;;;;;19.15;12.10;;;;;;;;;;5113086;28;20043;-62
2021/12/22 06:04:53;;;;;;;18.27;12.40;;;;;;;;;;5112550;28;20097;-62
2021/12/22 06:07:19;;;;;;;16.83;10.63;;;;;;;;;;5111901;28;20444;-62
2021/12/22 06:09:45;;;;;;;18.05;12.10;;;;;;;;;;5111877;28;20039;-62
2021/12/22 06:12:11;;;;;;;19.38;11.40;;;;;;;;;;5112523;28;20097;-62
2021/12/22 06:14:38;;;;;;;17.73;11.63;;;;;;;;;;5111808;28;20043;-62
2021/12/22 06:17:06;;;;;;;19.08;11.35;;;;;;;;;;5112261;28;20105;-62
2021/12/22 06:19:32;;;;;;;19.52;12.65;;;;;;;;;;5112633;28;20039;-62
2021/12/22 06:21:58;;;;;;;18.35;11.80;;;;;;;;;;5111361;28;20048;-62
2021/12/22 06:24:25;;;;;;;19.00;11.82;;;;;;;;;;5112551;28;20091;-62
2021/12/22 06:26:51;;;;;;;15.98;11.18;;;;;;;;;;5112016;28;20486;-62
2021/12/22 06:29:17;;;;;;;17.63;11.32;;;;;;;;;;5111785;28;20105;-62
2021/12/22 06:31:43;;;;;;;16.60;11.32;;;;;;;;;;5112140;28;20096;-62
2021/12/22 06:34:11;;;;;;;17.45;11.18;;;;;;;;;;5112349;28;20043;-61
2021/12/22 06:36:37;;;;;;;15.95;10.48;;;;;;;;;;5111266;28;20047;-63
2021/12/22 06:39:04;;;;;;;17.45;11.48;;;;;;;;;;5111874;28;20073;-65
2021/12/22 06:41:31;;;;;;;14.90;10.20;;;;;;;;;;5111922;28;20051;-65
2021/12/22 06:43:57;;;;;;;15.95;10.48;;;;;;;;;;5112515;28;20092;-65
2021/12/22 06:46:23;;;;;;;18.35;11.60;;;;;;;;;;5112071;28;20448;-62
2021/12/22 06:48:50;;;;;;;18.33;11.25;;;;;;;;;;5110989;28;20501;-62
2021/12/22 06:51:17;;;;;;;16.75;11.05;;;;;;;;;;5111993;28;20447;-62
2021/12/22 06:53:43;;;;;;;14.50;10.65;;;;;;;;;;5111823;28;20077;-64
2021/12/22 06:56:09;;;;;;;17.30;11.55;;;;;;;;;;5111231;28;20047;-64
2021/12/22 06:58:36;;;;;;;16.83;11.95;;;;;;;;;;5111990;28;20043;-63
2021/12/22 07:01:02;;;;;;;18.05;10.75;;;;;;;;;;5111790;28;20446;-64
2021/12/22 07:03:28;;;;;;;17.77;11.15;;;;;;;;;;5107381;28;20108;-62
2021/12/22 07:05:55;;;;;;;17.23;11.10;;;;;;;;;;5111064;28;20051;-61
2021/12/22 07:08:22;;;;;;;16.35;11.23;;;;;;;;;;5111494;28;20048;-61
2021/12/22 07:10:49;;;;;;;17.80;10.88;;;;;;;;;;5110848;28;20051;-63
2021/12/22 07:13:15;;;;;;;19.52;10.68;;;;;;;;;;5111669;28;20096;-60
2021/12/22 07:15:43;;;;;;;15.98;10.13;;;;;;;;;;5111548;28;20092;-62
2021/12/22 07:18:11;;;;;;;18.35;10.63;;;;;;;;;;5110237;28;20070;-62
2021/12/22 07:20:37;;;;;;;16.30;10.57;;;;;;;;;;5111225;28;20459;-61
2021/12/22 07:23:03;;;;;;;17.48;11.13;;;;;;;;;;5110947;28;20097;-60
2021/12/22 07:25:31;;;;;;;18.48;11.20;;;;;;;;;;5110774;28;20044;-60
2021/12/22 07:27:57;;;;;;;21.42;11.20;;;;;;;;;;5110340;28;20044;-63
2021/12/22 07:30:24;;;;;;;17.25;11.13;;;;;;;;;;5111743;28;20104;-61
2021/12/22 07:32:51;;;;;;;16.95;10.98;;;;;;;;;;5110493;28;20047;-61
2021/12/22 07:35:20;;;;;;;17.17;10.88;;;;;;;;;;5111538;28;20478;-61
2021/12/22 07:37:48;;;;;;;15.15;10.88;;;;;;;;;;5111001;28;20040;-61
2021/12/22 07:40:16;;;;;;;17.02;11.68;;;;;;;;;;5111069;28;20040;-60
2021/12/22 07:42:44;;;;;;;17.92;11.00;;;;;;;;;;5111300;28;20108;-61
2021/12/22 07:45:11;;;;;;;18.83;11.55;;;;;;;;;;5110982;28;20070;-61
2021/12/22 07:47:37;;;;;;;20.15;11.52;;;;;;;;;;5111422;28;20044;-61
2021/12/22 07:50:04;;;;;;;22.65;12.93;;;;;;;;;;5111241;28;20104;-61
2021/12/22 07:52:30;;;;;;;17.05;12.35;;;;;;;;;;5110685;28;20048;-61
2021/12/22 07:54:57;;;;;;;18.35;12.48;;;;;;;;;;5111208;28;20043;-61
2021/12/22 07:57:24;;;;;;;18.60;12.05;;;;;;;;;;5111584;28;20055;-61
2021/12/22 07:59:51;;;;;;;18.08;12.27;;;;;;;;;;5110263;28;20052;-61
2021/12/22 08:02:17;;;;;;;18.67;12.20;;;;;;;;;;5111630;28;20077;-61
2021/12/22 08:04:44;;;;;;;21.33;12.48;;;;;;;;;;5110821;28;20559;-60
2021/12/22 08:07:10;;;;;;;21.38;13.13;;;;;;;;;;5110861;28;20073;-60
2021/12/22 08:09:37;;;;;;;20.05;12.98;;;;;;;;;;5111285;28;20551;-60
2021/12/22 08:12:05;;;;;;;17.88;12.32;;;;;;;;;;5110996;28;20440;-61
2021/12/22 08:14:31;;;;;;;19.70;12.80;;;;;;;;;;5110724;28;20177;-62
2021/12/22 08:16:58;;;;;;;18.52;12.40;;;;;;;;;;5110913;28;20052;-62
2021/12/22 08:19:25;;;;;;;19.98;12.65;;;;;;;;;;5111100;28;20093;-61
2021/12/22 08:21:51;;;;;;;19.40;12.57;;;;;;;;;;5110606;28;20077;-61
2021/12/22 08:24:17;;;;;;;19.25;11.57;;;;;;;;;;5110825;28;20044;-61
2021/12/22 08:26:43;;;;;;;19.25;12.95;;;;;;;;;;5110995;28;20039;-61
2021/12/22 08:29:10;;;;;;;17.92;12.20;;;;;;;;;;5110314;28;20051;-61
2021/12/22 08:31:36;;;;;;;20.02;12.10;;;;;;;;;;5111138;28;20101;-61
2021/12/22 08:34:05;;;;;;;21.13;12.52;;;;;;;;;;5110589;28;20047;-61
2021/12/22 08:39:15;;;;;;;19.13;12.07;;;;;;;;;;5111713;28;20556;-61
2021/12/22 08:41:47;;;;;;;20.23;12.23;;;;;;;;;;5113759;28;20493;-61
2021/12/22 08:44:13;;;;;;;18.52;12.73;;;;;;;;;;5114597;28;20055;-61
2021/12/22 08:46:42;;;;;;;18.13;12.52;;;;;;;;;;5114789;28;20084;-60
2021/12/22 08:49:10;;;;;;;19.55;12.27;;;;;;;;;;5113889;28;20044;-61
2021/12/22 08:51:36;;;;;;;19.85;12.68;;;;;;;;;;5114404;28;20047;-61
2021/12/22 08:54:03;;;;;;;18.45;12.88;;;;;;;;;;5114236;28;20043;-60
2021/12/22 08:56:29;;;;;;;18.10;11.73;;;;;;;;;;5113664;28;20040;-61
2021/12/22 08:58:56;;;;;;;16.00;11.80;;;;;;;;;;5113863;28;20047;-61
2021/12/22 09:01:22;;;;;;;19.30;13.07;;;;;;;;;;5114225;28;20096;-61
2021/12/22 09:03:49;;;;;;;21.13;13.00;;;;;;;;;;5113133;27;20061;-61
2021/12/22 09:06:16;;;;;;;19.55;12.90;;;;;;;;;;5114105;28;20408;-61
2021/12/22 09:08:43;;;;;;;18.83;12.60;;;;;;;;;;5114011;28;20047;-61
2021/12/22 09:11:09;;;;;;;18.45;12.35;;;;;;;;;;5113389;28;20044;-61
2021/12/22 09:13:37;;;;;;;18.42;11.38;;;;;;;;;;5114393;28;20428;-61
2021/12/22 09:16:03;;;;;;;17.92;12.15;;;;;;;;;;5115076;28;20044;-61
2021/12/22 09:18:29;;;;;;;17.25;11.63;;;;;;;;;;5113726;28;20055;-61
2021/12/22 09:20:56;;;;;;;17.77;11.85;;;;;;;;;;5113709;28;20038;-61
2021/12/22 09:23:24;;;;;;;18.50;11.85;;;;;;;;;;5113817;28;20113;-60
2021/12/22 09:25:50;;;;;;;18.35;11.88;;;;;;;;;;5113519;28;20048;-60
2021/12/22 09:28:16;;;;;;;18.65;11.77;;;;;;;;;;5113851;28;20066;-60
2021/12/22 09:30:43;;;;;;;17.73;12.18;;;;;;;;;;5112609;28;20478;-61
2021/12/22 09:33:11;;;;;;;18.00;11.63;;;;;;;;;;5113850;28;20044;-61
2021/12/22 09:35:38;;;;;;;18.90;12.07;;;;;;;;;;5113767;28;20052;-61
2021/12/22 09:38:04;;;;;;;17.50;12.10;;;;;;;;;;5112511;28;20555;-61
2021/12/22 09:40:32;;;;;;;14.88;11.50;;;;;;;;;;5113403;28;20047;-61
2021/12/22 09:42:58;;;;;;;16.95;11.65;;;;;;;;;;5113044;28;20055;-62
2021/12/22 09:45:25;;;;;;;20.20;11.98;;;;;;;;;;5112804;28;20040;-61
2021/12/22 09:48:14;;;;;;;17.98;11.85;;;;;;;;;;5113311;28;20067;-60
2021/12/22 09:50:47;;;;;;;18.10;11.18;;;;;;;;;;5113075;28;20051;-66
2021/12/22 09:53:14;;;;;;;14.52;10.07;;;;;;;;;;5112596;28;20100;-63
2021/12/22 09:55:42;;;;;;;14.75;10.32;;;;;;;;;;5113533;28;20089;-64
2021/12/22 09:58:10;;;;;;;16.98;11.50;;;;;;;;;;5113484;28;20081;-64
2021/12/22 10:00:37;;;;;;;18.73;11.38;;;;;;;;;;5112273;28;20075;-63
2021/12/22 10:03:04;;;;;;;18.73;11.27;;;;;;;;;;5112823;28;20056;-63
2021/12/22 10:05:31;;;;;;;16.63;10.57;;;;;;;;;;5112984;28;20051;-64
2021/12/22 10:08:07;;;;;;;15.85;10.25;;;;;;;;;;5111895;28;20100;-63
2021/12/22 10:10:33;;;;;;;;;;;;;;;;;;5113577;27;20044;-63
2021/12/22 10:13:05;;;;;;;15.48;10.32;;;;;;;;;;5112143;27;19968;-61
2021/12/22 10:15:33;;;;;;;15.38;10.13;;;;;;;;;;5113102;28;20044;-61
2021/12/22 10:18:07;;;;;;;15.07;10.25;;;;;;;;;;5112415;28;20048;-61
2021/12/22 10:20:33;;;;;;;16.05;9.80;;;;;;;;;;5111755;28;20635;-61
2021/12/22 10:22:59;;;;;;;13.77;9.70;;;;;;;;;;5111922;28;20547;-61
2021/12/22 10:25:29;;;;;;;17.55;9.88;;;;;;;;;;5112241;28;20044;-61
2021/12/22 10:27:59;;;;;;;14.98;10.40;;;;;;;;;;5108674;28;20122;-61
2021/12/22 10:30:31;;;;;;;15.52;10.05;;;;;;;;;;5111716;28;20097;-62
2021/12/22 10:33:12;;;;;;;17.52;10.40;;;;;;;;;;5111220;28;20673;-61
2021/12/22 10:35:39;;;;;;;17.33;10.45;;;;;;;;;;5112015;28;20056;-61
2021/12/22 10:38:06;;;;;;;16.52;10.50;;;;;;;;;;5112161;28;20493;-61
2021/12/22 10:40:33;;;;;;;14.07;9.18;;;;;;;;;;5112546;28;20035;-62
2021/12/22 10:43:00;;;;;;;14.27;10.07;;;;;;;;;;5111192;28;20047;-62
2021/12/22 10:45:29;;;;;;;13.52;9.90;;;;;;;;;;5112310;28;20044;-61
2021/12/22 10:50:40;;;;;;;14.70;10.07;;;;;;;;;;5112371;28;20063;-61
2021/12/22 10:53:07;;;;;;;14.52;10.38;;;;;;;;;;5112031;28;20047;-61
2021/12/22 10:55:38;;;;;;;14.88;10.15;;;;;;;;;;5111449;28;20035;-61
2021/12/22 10:58:14;;;;;;;15.15;10.85;;;;;;;;;;5111945;28;20078;-61
2021/12/22 11:00:42;;;;;;;15.23;10.68;;;;;;;;;;5092010;28;20102;-61
2021/12/22 11:03:09;;;;;;;14.70;9.98;;;;;;;;;;5090492;28;20055;-61
2021/12/22 11:05:42;;;;;;;16.73;10.50;;;;;;;;;;5091821;28;20474;-61
2021/12/22 11:08:17;;;;;;;16.45;10.63;;;;;;;;;;5091506;28;20150;-61
2021/12/22 11:10:43;;;;;;;15.63;10.77;;;;;;;;;;5090635;28;20044;-61
2021/12/22 11:13:09;;;;;;;15.10;10.07;;;;;;;;;;5091523;28;20113;-61
2021/12/22 11:15:40;;;;;;;14.90;9.80;;;;;;;;;;5092229;28;20044;-61
2021/12/22 11:18:10;;;;;;;17.52;9.57;;;;;;;;;;5090420;28;20048;-61
2021/12/22 11:20:36;;;;;;;13.60;9.65;;;;;;;;;;5091546;28;20040;-61
2021/12/22 11:23:12;;;;;;;16.00;9.85;;;;;;;;;;5090410;28;20066;-61
2021/12/22 11:25:39;;;;;;;14.27;10.07;;;;;;;;;;5091918;28;20544;-61
2021/12/22 11:28:05;;;;;;;14.45;10.40;;;;;;;;;;5091147;28;20244;-61
2021/12/22 11:30:32;;;;;;;13.48;9.75;;;;;;;;;;5093552;28;20085;-61
2021/12/22 11:32:59;;;;;;;15.00;10.10;;;;;;;;;;5111390;28;20036;-61
2021/12/22 11:35:26;;;;;;;14.55;9.90;;;;;;;;;;5111561;28;20120;-61
2021/12/22 11:37:53;;;;;;;13.38;10.02;;;;;;;;;;5110750;28;20051;-61
2021/12/22 11:40:22;;;;;;;14.27;9.57;;;;;;;;;;5111524;28;20052;-61
2021/12/22 11:42:48;;;;;;;13.75;9.75;;;;;;;;;;5111142;28;20047;-61
2021/12/22 11:45:16;;;;;;;16.00;9.73;;;;;;;;;;5110005;28;20044;-61
2021/12/22 11:47:43;;;;;;;12.60;9.32;;;;;;;;;;5111049;28;20055;-61
2021/12/22 11:50:14;;;;;;;16.20;9.88;;;;;;;;;;5111571;28;20043;-61
2021/12/22 11:52:43;;;;;;;15.68;10.88;;;;;;;;;;5110957;28;20117;-61
2021/12/22 11:55:11;;;;;;;14.73;10.00;;;;;;;;;;5111377;28;20044;-61
2021/12/22 11:57:37;;;;;;;14.00;10.02;;;;;;;;;;5111057;28;20089;-61
2021/12/22 12:00:27;;;;;;;15.95;10.55;;;;;;;;;;5110077;28;20043;-62
2021/12/22 12:02:54;;;;;;;12.55;9.40;;;;;;;;;;5111181;28;20048;-61
2021/12/22 12:05:21;;;;;;;13.45;9.95;;;;;;;;;;5110381;28;20490;-61
2021/12/22 12:07:51;;;;;;;15.73;10.13;;;;;;;;;;5111175;28;20040;-62
2021/12/22 12:10:38;;;;;;;15.15;9.93;;;;;;;;;;5111339;28;20051;-62
2021/12/22 12:13:08;;;;;;;14.98;9.55;;;;;;;;;;5110670;28;20047;-62
2021/12/22 12:16:01;;;;;;;13.52;9.50;;;;;;;;;;5115125;28;20421;-61
2021/12/22 12:21:48;;;;;;;16.85;10.02;;;;;;;;;;5114233;28;20104;-62
2021/12/22 12:24:29;;;;;;;14.48;10.05;;;;;;;;;;5115082;28;20100;-61
2021/12/22 12:26:57;;;;;;;13.75;10.00;;;;;;;;;;5113752;28;20043;-61
2021/12/22 12:29:38;;;;;;;14.25;9.63;;;;;;;;;;5114948;28;20047;-62
2021/12/22 12:32:05;;;;;;;12.07;9.35;;;;;;;;;;5098308;28;20456;-62
2021/12/22 12:34:31;;;;;;;13.60;9.68;;;;;;;;;;5093824;28;20482;-62
2021/12/22 12:36:57;;;;;;;13.90;9.70;;;;;;;;;;5093851;28;20612;-62
2021/12/22 12:39:38;;;;;;;13.55;9.98;;;;;;;;;;5094296;28;20093;-62
2021/12/22 12:42:06;;;;;;;12.15;8.73;;;;;;;;;;5092613;28;20093;-62
2021/12/22 12:44:32;;;;;;;12.27;9.18;;;;;;;;;;5094480;28;20429;-62
2021/12/22 12:46:59;;;;;;;13.65;9.55;;;;;;;;;;5093339;28;20044;-61
2021/12/22 12:49:42;;;;;;;13.82;9.38;;;;;;;;;;5093249;28;20044;-63
2021/12/22 12:52:10;;;;;;;12.07;9.25;;;;;;;;;;5093867;28;20040;-61
2021/12/22 12:54:40;;;;;;;13.35;8.93;;;;;;;;;;5100592;28;20050;-61
2021/12/22 12:57:22;;;;;;;13.57;9.40;;;;;;;;;;5114238;28;20044;-61
2021/12/22 12:59:49;;;;;;;11.13;8.75;;;;;;;;;;5114054;28;20047;-61
2021/12/22 13:02:23;;;;;;;12.77;8.80;;;;;;;;;;5112629;28;20043;-61
2021/12/22 13:04:54;;;;;;;12.05;8.73;;;;;;;;;;5113636;28;20059;-61
2021/12/22 13:07:22;;;;;;;14.63;9.82;;;;;;;;;;5114203;28;20168;-61
2021/12/22 13:09:49;;;;;;;12.27;9.00;;;;;;;;;;5112724;28;20483;-61
2021/12/22 13:12:30;;;;;;;11.68;8.68;;;;;;;;;;5113908;28;20043;-62
2021/12/22 13:17:43;;;;;;;14.05;8.73;;;;;;;;;;5112583;28;20500;-64
2021/12/22 13:20:11;;;;;;;10.68;8.55;;;;;;;;;;5113932;28;20093;-62
2021/12/22 13:22:38;;;;;;;11.07;9.02;;;;;;;;;;5112940;28;20044;-60
2021/12/22 13:25:07;;;;;;;11.20;8.45;;;;;;;;;;5112176;28;20482;-62
2021/12/22 13:27:33;;;;;;;11.55;8.68;;;;;;;;;;5113778;28;20097;-62
2021/12/22 13:30:09;;;;;;;12.23;8.00;;;;;;;;;;5112489;28;20460;-61
2021/12/22 13:32:36;;;;;;;12.75;8.45;;;;;;;;;;5093522;28;20089;-63
2021/12/22 13:35:02;;;;;;;11.70;8.23;;;;;;;;;;5093108;28;20117;-62
2021/12/22 13:37:29;;;;;;;11.60;8.45;;;;;;;;;;5092494;28;20048;-61
2021/12/22 13:39:56;;;;;;;11.20;8.80;;;;;;;;;;5092942;28;20044;-62
2021/12/22 13:42:22;;;;;;;11.48;8.65;;;;;;;;;;5093253;28;20097;-61
2021/12/22 13:44:48;;;;;;;11.32;8.07;;;;;;;;;;5094362;28;20044;-61
2021/12/22 13:47:16;;;;;;;11.80;8.23;;;;;;;;;;5113034;28;20490;-62
2021/12/22 13:49:42;;;;;;;10.23;7.78;;;;;;;;;;5113262;28;20482;-61
2021/12/22 13:52:08;;;;;;;10.73;8.32;;;;;;;;;;5112513;28;20039;-61
2021/12/22 13:54:35;;;;;;;11.07;8.15;;;;;;;;;;5113403;28;20043;-61
2021/12/22 13:57:03;;;;;;;11.48;8.52;;;;;;;;;;5112904;28;20128;-61
2021/12/22 13:59:30;;;;;;;10.70;8.13;;;;;;;;;;5112508;28;20104;-61
2021/12/22 14:01:56;;;;;;;11.25;8.15;;;;;;;;;;5113035;28;20036;-61
2021/12/22 14:04:28;;;;;;;11.38;7.95;;;;;;;;;;5113037;28;20044;-61
2021/12/22 14:06:55;;;;;;;10.52;7.90;;;;;;;;;;5112125;28;20046;-61
2021/12/22 14:09:23;;;;;;;9.85;7.90;;;;;;;;;;5113623;28;20052;-61
2021/12/22 14:11:50;;;;;;;12.40;8.20;;;;;;;;;;5111930;28;20043;-61
2021/12/22 14:14:40;;;;;;;10.57;8.50;;;;;;;;;;5113233;28;20086;-61
2021/12/22 14:17:15;;;;;;;12.35;8.05;;;;;;;;;;5092508;28;20040;-61
2021/12/22 14:19:43;;;;;;;10.82;8.55;;;;;;;;;;5112123;28;20044;-61
2021/12/22 14:22:10;;;;;;;10.68;8.55;;;;;;;;;;5112996;28;20055;-61
2021/12/22 14:24:38;;;;;;;11.80;8.77;;;;;;;;;;5112826;28;20052;-61
2021/12/22 14:27:05;;;;;;;10.60;7.85;;;;;;;;;;5111763;28;20040;-61
2021/12/22 14:29:31;;;;;;;10.77;8.15;;;;;;;;;;5113045;28;20044;-61
2021/12/22 14:31:59;;;;;;;12.60;8.95;;;;;;;;;;5112306;28;20375;-61
2021/12/22 14:34:25;;;;;;;14.75;8.52;;;;;;;;;;5111781;28;20044;-61
2021/12/22 14:36:53;;;;;;;12.05;8.50;;;;;;;;;;5112346;28;20040;-61
2021/12/22 14:39:20;;;;;;;12.13;8.50;;;;;;;;;;5112401;28;20048;-61
2021/12/22 14:41:48;;;;;;;10.57;8.50;;;;;;;;;;5111290;28;20047;-61